| time (UTC) | temp C | wind direction | speed KPH | gust KPH | rain 1hr cm | rain 24hr cm | rain mn cm | humidity % | barometer mb |
| 20260507051015 | 9 | 297 | 0.0 | 14.5 | 661.09 | 0.00 | 0.00 | ||
| 20260507050015 | 8 | 300 | 6.4 | 14.5 | 661.09 | 0.00 | 0.00 | ||
| 20260507045015 | 9 | 287 | 4.8 | 16.1 | 661.09 | 0.00 | 0.00 | ||
| 20260507044515 | 9 | 300 | 0.0 | 6.4 | 661.09 | 0.00 | 0.00 | ||
| 20260507044015 | 9 | 280 | 3.2 | 9.7 | 661.09 | 0.00 | 0.00 | ||
| 20260507043515 | 9 | 297 | 3.2 | 8.0 | 661.09 | 0.00 | 0.00 | ||
| 20260507042015 | 9 | 325 | 8.0 | 16.1 | 661.09 | 0.00 | 0.00 | ||
| 20260507041015 | 9 | 308 | 8.0 | 17.7 | 661.09 | 0.00 | 0.00 | ||
| 20260507040015 | 9 | 278 | 6.4 | 14.5 | 661.09 | 0.00 | 0.00 | ||
| 20260507035515 | 9 | 280 | 8.0 | 14.5 | 661.09 | 0.00 | 0.00 | ||
| 20260507034515 | 10 | 323 | 8.0 | 16.1 | 661.09 | 0.00 | 0.00 | ||
| 20260507034015 | 10 | 271 | 6.4 | 16.1 | 661.09 | 0.00 | 0.00 | ||
| 20260507033015 | 10 | 274 | 8.0 | 17.7 | 661.09 | 0.00 | 0.86 | ||
| 20260507032515 | 10 | 312 | 6.4 | 19.3 | 661.09 | 0.00 | 0.86 | ||
| 20260507032015 | 10 | 266 | 8.0 | 16.1 | 661.06 | 0.00 | 0.84 | ||
| 20260507031515 | 10 | 281 | 9.7 | 25.7 | 661.06 | 0.00 | 0.84 | ||
| 20260507031015 | 10 | 277 | 11.3 | 24.1 | 661.06 | 0.00 | 0.84 | ||
| 20260507030015 | 10 | 311 | 8.0 | 14.5 | 661.03 | 0.00 | 0.81 | ||
| 20260507025516 | 10 | 226 | 9.7 | 19.3 | 661.03 | 0.00 | 0.81 | ||
| 20260507024515 | 11 | 269 | 11.3 | 22.5 | 661.03 | 0.00 | 0.81 | ||
| 20260507024015 | 11 | 287 | 11.3 | 22.5 | 661.03 | 0.00 | 0.81 | ||
| 20260507021515 | 12 | 288 | 9.7 | 22.5 | 661.03 | 0.00 | 0.81 | ||
| 20260507021015 | 12 | 287 | 8.0 | 22.5 | 661.03 | 0.00 | 0.81 | ||
| 20260507020015 | 12 | 278 | 9.7 | 14.5 | 661.03 | 0.00 | 0.81 | ||
| 20260507015015 | 13 | 273 | 11.3 | 24.1 | 661.03 | 0.00 | 0.81 | ||
| 20260507014015 | 13 | 274 | 8.0 | 12.9 | 661.03 | 0.00 | 0.81 | ||
| 20260507013515 | 13 | 315 | 9.7 | 19.3 | 661.01 | 0.00 | 0.79 | ||
| 20260507013015 | 13 | 278 | 8.0 | 17.7 | 661.01 | 0.00 | 0.79 | ||
| 20260507012015 | 13 | 276 | 9.7 | 16.1 | 661.01 | 0.00 | 0.79 | ||
| 20260507010515 | 13 | 281 | 8.0 | 20.9 | 661.01 | 0.00 | 0.79 | ||
| 20260507010015 | 14 | 260 | 9.7 | 22.5 | 660.98 | 0.00 | 0.76 | ||
| 20260507005515 | 14 | 309 | 8.0 | 19.3 | 660.96 | 0.00 | 0.74 | ||
| 20260507005015 | 14 | 266 | 8.0 | 14.5 | 660.96 | 0.00 | 0.74 | ||
| 20260507004015 | 14 | 277 | 6.4 | 16.1 | 660.93 | 0.00 | 0.71 | ||
| 20260507003515 | 14 | 250 | 3.2 | 17.7 | 660.93 | 0.00 | 0.71 | ||
| 20260507003015 | 14 | 249 | 8.0 | 17.7 | 660.93 | 0.00 | 0.71 | ||
| 20260507001516 | 14 | 274 | 6.4 | 12.9 | 660.93 | 0.00 | 0.71 | ||
| 20260507001015 | 14 | 277 | 6.4 | 11.3 | 660.91 | 0.00 | 0.69 | ||
| 20260507000015 | 14 | 252 | 6.4 | 16.1 | 660.91 | 0.00 | 0.69 | ||
| 20260506235515 | 14 | 225 | 6.4 | 14.5 | 660.91 | 0.00 | 0.69 | ||
| 20260506235015 | 14 | 127 | 9.7 | 22.5 | 660.91 | 0.00 | 0.69 | ||
| 20260506234016 | 14 | 136 | 6.4 | 14.5 | 660.88 | 0.00 | 0.66 | ||
| 20260506232016 | 14 | 117 | 8.0 | 25.7 | 660.88 | 0.00 | 0.66 | ||
| 20260506231515 | 15 | 224 | 8.0 | 17.7 | 660.88 | 0.00 | 0.66 | ||
| 20260506231015 | 15 | 225 | 9.7 | 20.9 | 660.88 | 0.00 | 0.66 | ||
| 20260506225015 | 15 | 242 | 8.0 | 17.7 | 660.88 | 0.00 | 0.66 | ||
| 20260506224015 | 15 | 231 | 6.4 | 17.7 | 660.88 | 0.00 | 0.66 | ||
| 20260506223516 | 15 | 135 | 8.0 | 14.5 | 660.88 | 0.00 | 0.66 | ||
| 20260506223015 | 15 | 240 | 8.0 | 17.7 | 660.88 | 0.00 | 0.66 | ||
| 20260506222516 | 15 | 232 | 8.0 | 17.7 | 660.88 | 0.00 | 0.66 | ||
| 20260506220016 | 15 | 263 | 8.0 | 19.3 | 660.88 | 0.00 | 0.66 | ||
| 20260506215016 | 15 | 235 | 8.0 | 20.9 | 660.88 | 0.00 | 0.66 | ||
| 20260506212017 | 15 | 108 | 8.0 | 17.7 | 660.88 | 0.00 | 0.66 | ||
| 20260506211016 | 15 | 214 | 8.0 | 22.5 | 660.88 | 0.00 | 0.66 | ||
| 20260506210517 | 15 | 221 | 6.4 | 14.5 | 660.88 | 0.00 | 0.66 | ||
| 20260506204516 | 16 | 215 | 4.8 | 11.3 | 660.86 | 0.00 | 0.64 | ||
| 20260506204017 | 16 | 212 | 4.8 | 12.9 | 660.86 | 0.00 | 0.64 | ||
| 20260506203516 | 16 | 201 | 4.8 | 9.7 | 660.86 | 0.00 | 0.64 | ||
| 20260506203016 | 16 | 228 | 6.4 | 14.5 | 660.86 | 0.00 | 0.64 | ||
| 20260506202016 | 15 | 231 | 4.8 | 14.5 | 660.83 | 0.00 | 0.61 | ||
| 20260506200516 | 16 | 236 | 4.8 | 12.9 | 660.70 | 0.00 | 0.48 | ||
| 20260506200016 | 16 | 242 | 6.4 | 9.7 | 660.68 | 0.00 | 0.46 | ||
| 20260506194519 | 16 | 278 | 4.8 | 8.0 | 660.58 | 0.00 | 0.36 | ||
| 20260506193516 | 16 | 226 | 6.4 | 17.7 | 660.55 | 0.00 | 0.33 | ||
| 20260506193016 | 16 | 277 | 9.7 | 17.7 | 660.53 | 0.00 | 0.30 | ||
| 20260506191516 | 16 | 270 | 6.4 | 17.7 | 660.50 | 0.00 | 0.28 | ||
| 20260506190516 | 16 | 255 | 8.0 | 16.1 | 660.50 | 0.00 | 0.28 | ||
| 20260506190016 | 16 | 253 | 8.0 | 16.1 | 660.48 | 0.00 | 0.25 | ||
| 20260506185516 | 16 | 205 | 6.4 | 12.9 | 660.48 | 0.00 | 0.25 | ||
| 20260506185016 | 16 | 211 | 6.4 | 12.9 | 660.48 | 0.00 | 0.25 | ||
| 20260506184516 | 16 | 191 | 8.0 | 16.1 | 660.48 | 0.00 | 0.25 | ||
| 20260506182516 | 17 | 217 | 4.8 | 11.3 | 660.43 | 0.00 | 0.20 | ||
| 20260506182016 | 16 | 280 | 4.8 | 12.9 | 660.43 | 0.00 | 0.20 | ||
| 20260506181516 | 16 | 307 | 6.4 | 16.1 | 660.40 | 0.00 | 0.18 | ||
| 20260506181016 | 17 | 232 | 4.8 | 14.5 | 660.37 | 0.00 | 0.15 | ||
| 20260506180516 | 17 | 281 | 6.4 | 11.3 | 660.35 | 0.00 | 0.13 | ||
| 20260506175016 | 17 | 233 | 8.0 | 14.5 | 660.30 | 0.00 | 0.08 | ||
| 20260506174516 | 17 | 249 | 8.0 | 16.1 | 660.30 | 0.00 | 0.08 | ||
| 20260506174016 | 17 | 243 | 6.4 | 11.3 | 660.27 | 0.00 | 0.05 | ||
| 20260506173516 | 17 | 259 | 4.8 | 9.7 | 660.27 | 0.00 | 0.05 | ||
| 20260506173016 | 17 | 225 | 4.8 | 9.7 | 660.25 | 0.00 | 0.03 | ||
| 20260506171016 | 18 | 238 | 3.2 | 6.4 | 660.22 | 0.00 | 0.00 | ||
| 20260506170516 | 18 | 238 | 3.2 | 8.0 | 660.22 | 0.00 | 0.00 | ||
| 20260506170016 | 18 | 129 | 3.2 | 11.3 | 660.22 | 0.00 | 0.00 | ||
| 20260506165016 | 18 | 139 | 6.4 | 16.1 | 660.22 | 0.00 | 0.00 | ||
| 20260506164516 | 19 | 191 | 4.8 | 12.9 | 660.22 | 0.00 | 0.00 | ||
| 20260506164016 | 20 | 245 | 3.2 | 8.0 | 660.22 | 0.00 | 0.00 | ||
| 20260506161016 | 18 | 226 | 3.2 | 9.7 | 660.22 | 0.00 | 0.00 | ||
| 20260506160516 | 18 | 136 | 1.6 | 17.7 | 660.22 | 0.00 | 0.00 | ||
| 20260506155016 | 17 | 232 | 4.8 | 11.3 | 660.22 | 0.00 | 0.00 | ||
| 20260506154016 | 17 | 235 | 3.2 | 11.3 | 660.22 | 0.00 | 0.00 | ||
| 20260506151516 | 18 | 297 | 3.2 | 9.7 | 660.22 | 0.00 | 0.00 | ||
| 20260506145516 | 17 | 248 | 3.2 | 11.3 | 660.22 | 0.00 | 0.00 | ||
| 20260506140016 | 17 | 224 | 4.8 | 9.7 | 660.22 | 0.00 | 0.00 | ||
| 20260506135016 | 17 | 242 | 4.8 | 11.3 | 660.22 | 0.00 | 0.00 | ||
| 20260506134516 | 17 | 287 | 6.4 | 14.5 | 660.22 | 0.00 | 0.00 | ||
| 20260506132516 | 17 | 231 | 6.4 | 12.9 | 660.22 | 0.00 | 0.00 | ||
| 20260506132019 | 17 | 304 | 1.6 | 8.0 | 660.22 | 0.00 | 0.00 | ||
| 20260506131016 | 17 | 226 | 3.2 | 11.3 | 660.22 | 0.00 | 0.00 | ||
| 20260506130016 | 17 | 267 | 4.8 | 8.0 | 660.22 | 0.00 | 0.00 | ||
| 20260506124016 | 17 | 287 | 3.2 | 14.5 | 660.22 | 0.00 | 0.00 | ||
| 20260506122018 | 16 | 221 | 3.2 | 11.3 | 660.22 | 0.00 | 0.00 | ||
| 20260506121016 | 16 | 127 | 3.2 | 9.7 | 660.22 | 0.00 | 0.00 | ||
| 20260506115016 | 16 | 117 | 3.2 | 6.4 | 660.22 | 0.00 | 0.00 | ||
| 20260506110016 | 15 | 158 | 3.2 | 9.7 | 660.22 | 0.00 | 0.00 | ||
| 20260506104016 | 15 | 229 | 4.8 | 11.3 | 660.22 | 0.00 | 0.00 | ||
| 20260506103516 | 15 | 205 | 4.8 | 9.7 | 660.22 | 0.00 | 0.00 | ||
| 20260506102516 | 14 | 256 | 4.8 | 9.7 | 660.22 | 0.00 | 0.00 | ||
| 20260506101516 | 15 | 132 | 3.2 | 9.7 | 660.22 | 0.00 | 0.00 | ||
| 20260506101017 | 14 | 169 | 3.2 | 4.8 | 660.22 | 0.00 | 0.00 | ||
| 20260506100516 | 14 | 226 | 3.2 | 6.4 | 660.22 | 0.00 | 0.00 | ||
| 20260506100016 | 14 | 214 | 3.2 | 6.4 | 660.22 | 0.00 | 0.00 | ||
| 20260506095016 | 14 | 229 | 3.2 | 6.4 | 660.22 | 0.00 | 0.00 | ||
| 20260506094016 | 14 | 253 | 4.8 | 6.4 | 660.22 | 0.00 | 0.00 | ||
| 20260506093516 | 14 | 259 | 4.8 | 8.0 | 660.22 | 0.00 | 0.00 | ||
| 20260506093016 | 14 | 246 | 3.2 | 6.4 | 660.22 | 0.00 | 0.00 | ||
| 20260506092516 | 14 | 229 | 3.2 | 4.8 | 660.22 | 0.00 | 0.00 | ||
| 20260506092016 | 14 | 301 | 3.2 | 8.0 | 660.22 | 0.00 | 0.00 | ||
| 20260506091516 | 15 | 267 | 3.2 | 8.0 | 660.22 | 0.00 | 0.00 | ||
| 20260506091016 | 14 | 293 | 4.8 | 11.3 | 660.22 | 0.00 | 0.00 | ||
| 20260506085017 | 14 | 295 | 6.4 | 11.3 | 660.22 | 0.00 | 0.00 | ||
| 20260506084516 | 14 | 208 | 4.8 | 9.7 | 660.22 | 0.00 | 0.00 | ||
| 20260506084016 | 15 | 260 | 4.8 | 8.0 | 660.22 | 0.00 | 0.00 | ||
| 20260506082516 | 15 | 284 | 3.2 | 11.3 | 660.22 | 0.00 | 0.00 | ||
| 20260506082016 | 15 | 308 | 3.2 | 4.8 | 660.22 | 0.00 | 0.00 | ||
| 20260506081016 | 15 | 277 | 4.8 | 11.3 | 660.22 | 0.00 | 0.00 | ||
| 20260506073516 | 15 | 302 | 3.2 | 11.3 | 660.22 | 0.00 | 0.00 | ||
| 20260506072016 | 15 | 262 | 4.8 | 12.9 | 660.22 | 0.00 | 0.00 | ||
| 20260506071016 | 15 | 291 | 4.8 | 12.9 | 660.22 | 0.00 | 0.00 | ||
| 20260506062516 | 16 | 300 | 6.4 | 14.5 | 660.22 | 0.00 | 0.00 | ||
| 20260506062016 | 16 | 208 | 6.4 | 14.5 | 660.22 | 0.00 | 0.00 | ||
| 20260506061016 | 16 | 212 | 3.2 | 14.5 | 660.22 | 0.00 | 0.00 |